Santa Fe, Florida
Current Conditions -  °F | °C
As of 3:53 PM on Thursday 23 Oct 2014 (Local Time) from KGNV Reporting Station
Clear Clear  
Wind Chill: 76°   Ceiling: Unl
Heat Index: 76°   Visibility: 10mi
Dew Point: 50°   Wind: 3mph
Humidity: 40%   Direction: NA
Pressure: 29.97"   Gusts: NA
Location:  29.8204°N, 82.4896°W
Report Text: KGNV 231953Z VRB03KT 10SM CLR 24/10 A2997 RMK AO2 SLP149 T02440100
Loading
Personal Weather Stations






























Interactive Weather Map
Tropical Storm Tracking
New forecast layout! Learn more

10-Day Weather Forecast

Advertisements
Track Severe Weather on mobile